createdAt,value
2018-12-14T00:01:04.592Z,98031.74
2018-12-14T00:03:35.980Z,98025.77
2018-12-14T00:06:07.566Z,98031.21
2018-12-14T00:08:38.980Z,98028.45
2018-12-14T00:11:10.578Z,98026.16
2018-12-14T00:13:42.369Z,98032.30
2018-12-14T00:16:13.892Z,98026.47
2018-12-14T00:18:45.491Z,98035.44
2018-12-14T00:21:16.991Z,98032.93
2018-12-14T00:23:48.535Z,98035.86
2018-12-14T00:26:19.991Z,98036.22
2018-12-14T00:28:51.602Z,98035.17
2018-12-14T00:31:23.114Z,98035.91
2018-12-14T00:33:54.705Z,98040.89
2018-12-14T00:36:26.235Z,98037.07
2018-12-14T00:38:57.980Z,98041.17
2018-12-14T00:41:29.488Z,98039.70
2018-12-14T00:44:01.061Z,98044.98
2018-12-14T00:46:32.343Z,98040.34
2018-12-14T00:49:03.967Z,98050.39
2018-12-14T00:51:35.392Z,98052.42
2018-12-14T00:54:06.987Z,98048.16
2018-12-14T00:56:38.393Z,98052.11
2018-12-14T00:59:09.972Z,98048.91
2018-12-14T01:01:41.600Z,98056.03
2018-12-14T01:04:13.103Z,98059.86
2018-12-14T01:06:44.646Z,98061.44
2018-12-14T01:09:16.055Z,98065.77
2018-12-14T01:11:47.616Z,98062.20
2018-12-14T01:14:19.260Z,98071.70
2018-12-14T01:16:50.855Z,98071.80
2018-12-14T01:19:22.408Z,98068.03
2018-12-14T01:21:53.965Z,98069.87
2018-12-14T01:24:25.399Z,98070.69
2018-12-14T01:26:56.974Z,98075.66
2018-12-14T01:29:28.573Z,98076.01
2018-12-14T01:31:59.982Z,98070.92
2018-12-14T01:34:31.386Z,98072.84
2018-12-14T01:37:02.979Z,98073.08
2018-12-14T01:39:34.596Z,98069.55
2018-12-14T01:42:06.110Z,98073.33
2018-12-14T01:44:37.698Z,98069.53
2018-12-14T01:47:09.227Z,98072.77
2018-12-14T01:49:40.807Z,98073.22
2018-12-14T01:52:12.325Z,98073.56
2018-12-14T01:54:43.891Z,98069.11
2018-12-14T01:57:15.410Z,98065.20
2018-12-14T01:59:47.025Z,98061.20
2018-12-14T02:02:18.532Z,98056.06
2018-12-14T02:04:50.083Z,98056.16
2018-12-14T02:07:21.534Z,98055.19
2018-12-14T02:09:53.139Z,98060.41
2018-12-14T02:12:24.643Z,98055.11
2018-12-14T02:14:56.183Z,98055.80
2018-12-14T02:17:27.687Z,98052.97
2018-12-14T02:19:59.499Z,98054.73
2018-12-14T02:22:30.963Z,98055.05
2018-12-14T02:25:02.504Z,98053.16
2018-12-14T02:27:33.971Z,98055.95
2018-12-14T02:30:20.358Z,98050.36
2018-12-14T02:32:51.902Z,98053.31
2018-12-14T02:35:23.536Z,98058.11
2018-12-14T02:37:55.399Z,98054.31
2018-12-14T02:40:27.020Z,98050.78
2018-12-14T02:42:58.462Z,98050.70
2018-12-14T02:45:30.049Z,98049.54
2018-12-14T02:48:01.574Z,98042.83
2018-12-14T02:50:33.172Z,98048.82
2018-12-14T02:53:04.678Z,98043.16
2018-12-14T02:55:36.212Z,98044.31
2018-12-14T02:58:07.666Z,98044.16
2018-12-14T03:00:39.433Z,98044.20
2018-12-14T03:03:10.881Z,98042.96
2018-12-14T03:05:42.434Z,98047.63
2018-12-14T03:08:13.841Z,98047.78
2018-12-14T03:10:45.447Z,98047.11
2018-12-14T03:13:16.885Z,98045.14
2018-12-14T03:15:48.436Z,98047.33
2018-12-14T03:18:19.909Z,98043.73
2018-12-14T03:20:51.309Z,98044.08
2018-12-14T03:23:22.927Z,98038.75
2018-12-14T03:25:54.848Z,98041.78
2018-12-14T03:28:26.317Z,98042.06
2018-12-14T03:30:57.866Z,98049.38
2018-12-14T03:33:29.322Z,98051.17
2018-12-14T03:36:00.862Z,98051.31
2018-12-14T03:38:32.325Z,98052.86
2018-12-14T03:41:03.940Z,98053.83
2018-12-14T03:43:35.436Z,98060.64
2018-12-14T03:46:06.989Z,98059.24
2018-12-14T03:48:38.884Z,98060.23
2018-12-14T03:51:10.499Z,98064.70
2018-12-14T03:53:41.917Z,98066.38
2018-12-14T03:56:13.496Z,98062.96
2018-12-14T03:58:45.050Z,98063.54
2018-12-14T04:01:16.615Z,98068.41
2018-12-14T04:03:48.035Z,98068.00
2018-12-14T04:06:19.504Z,98069.95
2018-12-14T04:08:51.134Z,98071.47
2018-12-14T04:11:22.589Z,98075.77
2018-12-14T04:13:54.236Z,98073.95
2018-12-14T04:16:25.743Z,98076.41
2018-12-14T04:18:57.287Z,98070.30
2018-12-14T04:21:28.751Z,98073.27
2018-12-14T04:24:00.350Z,98073.27
2018-12-14T04:26:31.856Z,98081.55
2018-12-14T04:29:03.274Z,98074.20
2018-12-14T04:31:34.857Z,98076.00
2018-12-14T04:34:06.307Z,98074.45
2018-12-14T04:36:37.757Z,98067.86
2018-12-14T04:39:09.780Z,98071.73
2018-12-14T04:41:41.281Z,98076.04
2018-12-14T04:44:12.886Z,98081.37
2018-12-14T04:46:44.382Z,98080.37
2018-12-14T04:49:15.990Z,98084.98
2018-12-14T04:51:47.496Z,98083.38
2018-12-14T04:54:19.089Z,98080.05
2018-12-14T04:56:50.611Z,98079.73
2018-12-14T04:59:22.204Z,98083.70
2018-12-14T05:01:53.713Z,98083.84
2018-12-14T05:04:25.310Z,98083.11
2018-12-14T05:06:56.821Z,98087.27
2018-12-14T05:09:28.421Z,98091.30
2018-12-14T05:11:59.930Z,98096.80
2018-12-14T05:14:31.543Z,98102.08
2018-12-14T05:17:03.029Z,98105.52
2018-12-14T05:19:34.574Z,98103.56
2018-12-14T05:22:06.303Z,98104.41
2018-12-14T05:24:37.804Z,98100.27
2018-12-14T05:27:09.607Z,98108.73
2018-12-14T05:29:41.367Z,98110.93
2018-12-14T05:32:13.012Z,98114.56
2018-12-14T05:34:44.527Z,98112.77
2018-12-14T05:37:15.928Z,98119.13
2018-12-14T05:39:47.509Z,98122.41
2018-12-14T05:42:18.992Z,98125.02
2018-12-14T05:44:50.581Z,98130.91
2018-12-14T05:47:22.092Z,98130.19
2018-12-14T05:49:53.400Z,98127.02
2018-12-14T05:52:24.985Z,98121.23
2018-12-14T05:54:56.492Z,98127.97
2018-12-14T05:57:28.096Z,98127.63
2018-12-14T05:59:59.636Z,98127.36
2018-12-14T06:02:31.208Z,98127.02
2018-12-14T06:05:02.812Z,98122.12
2018-12-14T06:07:34.315Z,98120.42
2018-12-14T06:10:07.118Z,98118.86
2018-12-14T06:12:38.642Z,98125.90
2018-12-14T06:15:10.297Z,98130.55
2018-12-14T06:17:41.850Z,98129.55
2018-12-14T06:20:13.252Z,98126.80
2018-12-14T06:22:44.860Z,98126.23
2018-12-14T06:25:16.417Z,98127.22
2018-12-14T06:27:47.964Z,98138.92
2018-12-14T06:30:19.576Z,98138.92
2018-12-14T06:32:51.089Z,98142.38
2018-12-14T06:35:22.487Z,98142.50
2018-12-14T06:37:54.084Z,98143.61
2018-12-14T06:40:25.509Z,98143.23
2018-12-14T06:42:57.076Z,98145.77
2018-12-14T06:45:28.532Z,98144.23
2018-12-14T06:48:00.094Z,98145.66
2018-12-14T06:50:32.935Z,98149.30
2018-12-14T06:53:04.709Z,98145.34
2018-12-14T06:55:36.144Z,98151.95
2018-12-14T06:58:07.736Z,98157.01
2018-12-14T07:00:39.460Z,98157.77
2018-12-14T07:03:10.909Z,98172.84
2018-12-14T07:05:42.504Z,98173.48
2018-12-14T07:08:13.960Z,98172.89
2018-12-14T07:10:45.609Z,98177.25
2018-12-14T07:13:21.868Z,98178.48
2018-12-14T07:15:50.667Z,98174.11
2018-12-14T07:18:22.209Z,98177.51
2018-12-14T07:20:53.926Z,98176.42
2018-12-14T07:23:25.644Z,98178.36
2018-12-14T07:25:57.105Z,98178.61
2018-12-14T07:28:28.701Z,98180.37
2018-12-14T07:31:00.101Z,98184.09
2018-12-14T07:33:31.696Z,98184.42
2018-12-14T07:36:03.215Z,98187.48
2018-12-14T07:38:34.601Z,98194.34
2018-12-14T07:41:06.193Z,98194.64
2018-12-14T07:43:37.748Z,98192.72
2018-12-14T07:46:09.431Z,98197.09
2018-12-14T07:48:40.832Z,98200.50
2018-12-14T07:51:12.420Z,98205.82
2018-12-14T07:53:43.817Z,98210.20
2018-12-14T07:56:15.423Z,98215.70
2018-12-14T07:58:47.204Z,98212.64
2018-12-14T08:01:19.016Z,98214.86
2018-12-14T08:03:50.594Z,98213.14
2018-12-14T08:06:22.016Z,98218.61
2018-12-14T08:08:53.636Z,98216.23
2018-12-14T08:11:25.073Z,98213.98
2018-12-14T08:13:56.605Z,98214.48
2018-12-14T08:16:28.073Z,98224.04
2018-12-14T08:18:59.664Z,98223.69
2018-12-14T08:21:31.178Z,98227.80
2018-12-14T08:24:02.785Z,98231.47
2018-12-14T08:26:34.284Z,98231.13
2018-12-14T08:29:05.887Z,98225.72
2018-12-14T08:31:37.395Z,98232.45
2018-12-14T08:34:08.939Z,98224.52
2018-12-14T08:36:40.405Z,98225.94
2018-12-14T08:39:11.956Z,98232.69
2018-12-14T08:41:43.399Z,98230.85
2018-12-14T08:44:15.010Z,98238.97
2018-12-14T08:46:46.530Z,98235.91
2018-12-14T08:49:18.143Z,98233.57
2018-12-14T08:51:49.612Z,98238.42
2018-12-14T08:54:21.179Z,98239.36
2018-12-14T08:56:52.621Z,98238.82
2018-12-14T08:59:24.156Z,98246.64
2018-12-14T09:01:55.613Z,98243.21
2018-12-14T09:04:27.222Z,98244.60
2018-12-14T09:06:58.743Z,98244.61
2018-12-14T09:09:30.439Z,98249.44
2018-12-14T09:12:01.946Z,98248.77
2018-12-14T09:14:33.644Z,98249.99
2018-12-14T09:17:05.167Z,98251.16
2018-12-14T09:19:36.556Z,98252.22
2018-12-14T09:22:08.139Z,98250.89
2018-12-14T09:24:39.564Z,98254.38
2018-12-14T09:27:11.145Z,98263.08
2018-12-14T09:29:42.772Z,98247.66
2018-12-14T09:32:14.353Z,98254.05
2018-12-14T09:34:45.832Z,98257.70
2018-12-14T09:37:17.372Z,98259.06
2018-12-14T09:39:48.917Z,98258.80
2018-12-14T09:42:20.474Z,98258.48
2018-12-14T09:44:51.887Z,98257.75
2018-12-14T09:47:23.492Z,98257.74
2018-12-14T09:49:55.084Z,98253.76
2018-12-14T09:52:26.609Z,98254.68
2018-12-14T09:54:58.141Z,98254.16
2018-12-14T09:57:29.643Z,98253.89
2018-12-14T10:00:01.310Z,98254.81
2018-12-14T10:02:32.813Z,98258.24
2018-12-14T10:05:04.468Z,98261.09
2018-12-14T10:07:35.896Z,98261.13
2018-12-14T10:10:09.878Z,98264.08
2018-12-14T10:12:41.488Z,98258.69
2018-12-14T10:15:12.915Z,98263.92
2018-12-14T10:17:44.490Z,98259.51
2018-12-14T10:20:16.098Z,98263.55
2018-12-14T10:22:48.627Z,98268.44
2018-12-14T10:25:20.024Z,98271.37
2018-12-14T10:27:51.619Z,98272.63
2018-12-14T10:30:23.176Z,98279.13
2018-12-14T10:32:54.739Z,98278.75
2018-12-14T10:35:26.162Z,98282.40
2018-12-14T10:37:57.740Z,98278.22
2018-12-14T10:40:29.355Z,98283.08
2018-12-14T10:43:00.932Z,98279.42
2018-12-14T10:45:32.821Z,98287.63
2018-12-14T10:48:04.268Z,98279.08
2018-12-14T10:50:39.633Z,98280.59
2018-12-14T10:53:13.668Z,98272.94
2018-12-14T10:55:45.265Z,98274.05
2018-12-14T10:58:16.881Z,98273.17
2018-12-14T11:00:53.329Z,98268.44
2018-12-14T11:03:24.843Z,98267.23
2018-12-14T11:05:56.330Z,98269.92
2018-12-14T11:08:27.706Z,98270.66
2018-12-14T11:10:59.311Z,98258.16
2018-12-14T11:13:30.913Z,98268.84
2018-12-14T11:16:02.535Z,98266.23
2018-12-14T11:18:34.127Z,98260.02
2018-12-14T11:21:05.674Z,98263.06
2018-12-14T11:23:37.331Z,98272.74
2018-12-14T11:26:08.839Z,98263.55
2018-12-14T11:28:40.435Z,98259.95
2018-12-14T11:31:11.941Z,98248.45
2018-12-14T11:33:43.338Z,98247.46
2018-12-14T11:36:14.942Z,98254.95
2018-12-14T11:38:46.553Z,98256.73
2018-12-14T11:41:18.598Z,98257.88
2018-12-14T11:43:50.315Z,98263.44
2018-12-14T11:46:23.543Z,98269.47
2018-12-14T11:48:55.059Z,98265.55
2018-12-14T11:51:28.043Z,98267.48
2018-12-14T11:53:59.608Z,98260.92
2018-12-14T11:56:31.014Z,98260.77
2018-12-14T11:59:02.627Z,98261.98
2018-12-14T12:01:34.124Z,98258.03
2018-12-14T12:04:05.715Z,98266.16
2018-12-14T12:06:37.328Z,98262.98
2018-12-14T12:09:12.405Z,98261.66
2018-12-14T12:11:43.967Z,98253.93
2018-12-14T12:14:15.380Z,98257.89
2018-12-14T12:16:46.988Z,98259.52
2018-12-14T12:19:18.400Z,98256.52
2018-12-14T12:21:50.023Z,98254.00
2018-12-14T12:24:21.484Z,98254.50
2018-12-14T12:26:53.065Z,98246.94
2018-12-14T12:29:24.504Z,98254.19
2018-12-14T12:31:56.072Z,98253.80
2018-12-14T12:34:27.511Z,98256.88
2018-12-14T12:36:59.151Z,98255.31
2018-12-14T12:39:30.699Z,98253.19
2018-12-14T12:42:02.298Z,98256.61
2018-12-14T12:44:33.918Z,98254.75
2018-12-14T12:47:05.510Z,98254.90
2018-12-14T12:49:36.930Z,98252.38
2018-12-14T12:52:14.690Z,98249.73
2018-12-14T12:54:56.589Z,98242.98
2018-12-14T12:57:36.725Z,98246.06
2018-12-14T13:00:16.032Z,98247.40
2018-12-14T13:02:54.281Z,98246.50
2018-12-14T13:05:35.062Z,98243.19
2018-12-14T13:08:14.282Z,98249.84
2018-12-14T13:10:49.819Z,98248.20
2018-12-14T13:13:21.356Z,98243.31
2018-12-14T13:15:52.779Z,98245.09
2018-12-14T13:18:24.382Z,98242.23
2018-12-14T13:20:55.881Z,98243.30
2018-12-14T13:23:27.659Z,98244.73
2018-12-14T13:25:59.191Z,98254.69
2018-12-14T13:28:31.077Z,98252.73
2018-12-14T13:31:02.651Z,98254.17
2018-12-14T13:33:34.075Z,98253.91
2018-12-14T13:36:05.806Z,98257.38
2018-12-14T13:38:37.311Z,98255.23
2018-12-14T13:41:08.866Z,98258.64
2018-12-14T13:43:40.392Z,98257.69
2018-12-14T13:46:11.975Z,98257.50
2018-12-14T13:48:43.595Z,98253.78
2018-12-14T13:51:15.262Z,98259.61
2018-12-14T13:53:46.948Z,98261.25
2018-12-14T13:56:18.427Z,98263.99
2018-12-14T13:58:50.008Z,98264.52
2018-12-14T14:01:21.528Z,98272.28
2018-12-14T14:03:53.057Z,98278.43
2018-12-14T14:06:24.514Z,98278.51
2018-12-14T14:08:56.066Z,98284.03
2018-12-14T14:11:27.531Z,98292.61
2018-12-14T14:13:59.127Z,98288.16
2018-12-14T14:16:30.626Z,98293.35
2018-12-14T14:19:02.177Z,98296.81
2018-12-14T14:21:33.749Z,98302.30
2018-12-14T14:24:05.293Z,98294.43
2018-12-14T14:26:36.751Z,98298.59
2018-12-14T14:29:08.352Z,98293.81
2018-12-14T14:31:39.847Z,98301.92
2018-12-14T14:34:11.455Z,98298.34
2018-12-14T14:36:42.964Z,98307.17
2018-12-14T14:39:14.514Z,98301.73
2018-12-14T14:41:45.867Z,98304.53
2018-12-14T14:44:17.464Z,98299.55
2018-12-14T14:46:48.975Z,98299.66
2018-12-14T14:49:20.527Z,98300.45
2018-12-14T14:51:52.234Z,98311.45
2018-12-14T14:54:23.929Z,98316.89
2018-12-14T14:56:55.548Z,98318.34
2018-12-14T14:59:27.043Z,98320.61
2018-12-14T15:01:58.695Z,98329.58
2018-12-14T15:04:30.259Z,98338.35
2018-12-14T15:07:01.794Z,98340.41
2018-12-14T15:09:33.212Z,98345.58
2018-12-14T15:12:04.807Z,98351.98
2018-12-14T15:14:36.357Z,98352.84
2018-12-14T15:17:07.921Z,98354.28
2018-12-14T15:19:39.464Z,98357.08
2018-12-14T15:22:11.019Z,98359.77
2018-12-14T15:24:42.435Z,98359.47
2018-12-14T15:27:14.033Z,98360.67
2018-12-14T15:29:45.636Z,98362.16
2018-12-14T15:32:17.919Z,98369.87
2018-12-14T15:34:49.423Z,98372.31
2018-12-14T15:37:20.951Z,98373.02
2018-12-14T15:39:52.414Z,98372.16
2018-12-14T15:42:24.031Z,98383.22
2018-12-14T15:44:55.544Z,98382.50
2018-12-14T15:47:27.135Z,98384.58
2018-12-14T15:49:58.635Z,98383.72
2018-12-14T15:52:30.236Z,98381.44
2018-12-14T15:55:01.743Z,98383.22
2018-12-14T15:57:33.393Z,98392.57
2018-12-14T16:00:05.659Z,98394.02
2018-12-14T16:02:37.188Z,98396.44
2018-12-14T16:05:09.104Z,98396.99
2018-12-14T16:07:40.690Z,98400.84
2018-12-14T16:10:12.227Z,98401.95
2018-12-14T16:12:43.798Z,98406.55
2018-12-14T16:15:19.977Z,98411.81
2018-12-14T16:17:48.899Z,98415.97
2018-12-14T16:20:20.364Z,98415.53
2018-12-14T16:22:51.929Z,98407.31
2018-12-14T16:25:23.941Z,98415.05
2018-12-14T16:27:55.383Z,98415.66
2018-12-14T16:30:26.962Z,98415.93
2018-12-14T16:32:58.435Z,98418.34
2018-12-14T16:35:29.979Z,98420.47
2018-12-14T16:38:01.421Z,98421.06
2018-12-14T16:40:32.935Z,98423.19
2018-12-14T16:43:04.579Z,98425.15
2018-12-14T16:45:36.203Z,98431.39
2018-12-14T16:48:07.663Z,98429.95
2018-12-14T16:50:39.199Z,98428.22
2018-12-14T16:53:10.654Z,98434.78
2018-12-14T16:55:42.260Z,98430.62
2018-12-14T16:58:13.747Z,98436.45
2018-12-14T17:00:45.370Z,98440.56
2018-12-14T17:03:16.975Z,98440.80
2018-12-14T17:05:48.511Z,98441.88
2018-12-14T17:08:19.938Z,98447.23
2018-12-14T17:10:51.509Z,98452.20
2018-12-14T17:13:22.933Z,98452.06
2018-12-14T17:15:54.531Z,98452.73
2018-12-14T17:18:26.148Z,98457.19
2018-12-14T17:20:57.652Z,98456.51
2018-12-14T17:23:29.247Z,98455.23
2018-12-14T17:26:00.759Z,98458.03
2018-12-14T17:28:32.384Z,98456.08
2018-12-14T17:31:04.170Z,98460.91
2018-12-14T17:33:36.267Z,98461.95
2018-12-14T17:36:07.891Z,98462.39
2018-12-14T17:38:39.536Z,98462.52
2018-12-14T17:41:11.092Z,98459.88
2018-12-14T17:43:42.498Z,98458.05
2018-12-14T17:46:14.101Z,98453.59
2018-12-14T17:48:45.516Z,98458.12
2018-12-14T17:51:17.167Z,98461.02
2018-12-14T17:53:48.813Z,98465.00
2018-12-14T17:56:20.220Z,98467.94
2018-12-14T17:58:51.828Z,98471.47
2018-12-14T18:01:23.343Z,98471.00
2018-12-14T18:03:54.930Z,98473.66
2018-12-14T18:06:26.396Z,98480.25
2018-12-14T18:08:57.978Z,98485.20
2018-12-14T18:11:29.451Z,98490.25
2018-12-14T18:14:01.042Z,98487.88
2018-12-14T18:16:32.742Z,98490.45
2018-12-14T18:19:04.462Z,98488.39
2018-12-14T18:21:35.931Z,98489.84
2018-12-14T18:24:07.505Z,98485.20
2018-12-14T18:26:39.127Z,98489.27
2018-12-14T18:29:10.633Z,98488.84
2018-12-14T18:31:42.232Z,98483.52
2018-12-14T18:34:13.739Z,98483.05
2018-12-14T18:36:45.345Z,98485.63
2018-12-14T18:39:16.851Z,98490.72
2018-12-14T18:41:48.454Z,98493.85
2018-12-14T18:44:19.960Z,98494.16
2018-12-14T18:46:51.511Z,98495.56
2018-12-14T18:49:22.967Z,98498.13
2018-12-14T18:51:54.383Z,98500.80
2018-12-14T18:54:25.965Z,98495.66
2018-12-14T18:56:57.374Z,98497.55
2018-12-14T18:59:29.122Z,98499.91
2018-12-14T19:02:01.548Z,98511.91
2018-12-14T19:04:33.097Z,98510.19
2018-12-14T19:07:04.626Z,98513.00
2018-12-14T19:09:36.526Z,98510.64
2018-12-14T19:12:07.988Z,98512.27
2018-12-14T19:14:39.521Z,98518.30
2018-12-14T19:17:10.985Z,98523.53
2018-12-14T19:19:42.741Z,98521.53
2018-12-14T19:22:14.187Z,98517.45
2018-12-14T19:24:45.765Z,98523.37
2018-12-14T19:27:17.197Z,98520.33
2018-12-14T19:29:48.796Z,98532.19
2018-12-14T19:32:20.305Z,98532.52
2018-12-14T19:34:51.720Z,98537.36
2018-12-14T19:37:23.253Z,98538.23
2018-12-14T19:39:54.709Z,98542.53
2018-12-14T19:42:26.303Z,98544.98
2018-12-14T19:44:57.912Z,98547.88
2018-12-14T19:47:29.670Z,98550.89
2018-12-14T19:50:01.270Z,98551.28
2018-12-14T19:52:32.728Z,98558.22
2018-12-14T19:55:04.283Z,98559.89
2018-12-14T19:57:35.743Z,98567.53
2018-12-14T20:00:10.746Z,98564.41
2018-12-14T20:02:42.637Z,98571.09
2018-12-14T20:05:14.080Z,98563.50
2018-12-14T20:07:45.630Z,98571.04
2018-12-14T20:10:17.099Z,98571.51
2018-12-14T20:12:48.695Z,98577.85
2018-12-14T20:15:20.204Z,98574.13
2018-12-14T20:17:51.798Z,98568.91
2018-12-14T20:20:23.353Z,98572.95
2018-12-14T20:22:54.949Z,98574.14
2018-12-14T20:25:26.420Z,98571.47
2018-12-14T20:27:58.015Z,98570.78
2018-12-14T20:30:29.526Z,98575.97
2018-12-14T20:33:00.922Z,98573.92
2018-12-14T20:35:32.772Z,98573.03
2018-12-14T20:38:04.779Z,98572.94
2018-12-14T20:40:36.392Z,98580.40
2018-12-14T20:43:07.902Z,98577.58
2018-12-14T20:45:39.442Z,98583.12
2018-12-14T20:48:11.014Z,98586.73
2018-12-14T20:50:42.613Z,98591.12
2018-12-14T20:53:14.110Z,98585.46
2018-12-14T20:55:45.721Z,98591.99
2018-12-14T20:58:17.215Z,98590.68
2018-12-14T21:00:48.818Z,98593.44
2018-12-14T21:03:20.327Z,98597.23
2018-12-14T21:05:51.930Z,98600.67
2018-12-14T21:08:23.435Z,98596.61
2018-12-14T21:10:54.843Z,98601.64
2018-12-14T21:13:26.431Z,98605.39
2018-12-14T21:15:57.835Z,98603.56
2018-12-14T21:18:29.431Z,98609.84
2018-12-14T21:21:00.849Z,98608.23
2018-12-14T21:23:32.480Z,98613.77
2018-12-14T21:26:04.052Z,98611.31
2018-12-14T21:28:35.643Z,98607.22
2018-12-14T21:31:07.202Z,98610.19
2018-12-14T21:33:38.751Z,98604.15
2018-12-14T21:36:10.310Z,98610.50
2018-12-14T21:38:41.865Z,98611.63
2018-12-14T21:41:13.270Z,98607.10
2018-12-14T21:43:44.879Z,98594.02
2018-12-14T21:46:16.286Z,98598.72
2018-12-14T21:48:47.879Z,98592.73
2018-12-14T21:51:19.348Z,98589.59
2018-12-14T21:53:50.888Z,98586.03
2018-12-14T21:56:22.347Z,98586.98
2018-12-14T21:58:53.884Z,98589.49
2018-12-14T22:01:25.371Z,98588.70
2018-12-14T22:03:56.999Z,98592.05
2018-12-14T22:06:28.415Z,98603.80
2018-12-14T22:08:59.892Z,98605.34
2018-12-14T22:11:31.307Z,98603.24
2018-12-14T22:14:02.907Z,98602.94
2018-12-14T22:16:39.190Z,98603.72
2018-12-14T22:19:08.343Z,98600.64
2018-12-14T22:21:40.039Z,98589.80
2018-12-14T22:24:11.643Z,98591.20
2018-12-14T22:26:43.151Z,98582.38
2018-12-14T22:29:14.753Z,98581.56
2018-12-14T22:31:46.243Z,98578.72
2018-12-14T22:34:17.894Z,98578.63
2018-12-14T22:36:49.445Z,98572.06
2018-12-14T22:39:21.758Z,98580.54
2018-12-14T22:41:53.282Z,98575.64
2018-12-14T22:44:24.959Z,98578.50
2018-12-14T22:46:56.581Z,98572.92
2018-12-14T22:49:27.980Z,98577.70
2018-12-14T22:51:59.483Z,98574.27
2018-12-14T22:54:30.943Z,98574.83
2018-12-14T22:57:02.497Z,98578.41
2018-12-14T22:59:33.955Z,98577.59
2018-12-14T23:02:05.602Z,98578.11
2018-12-14T23:04:37.055Z,98581.17
2018-12-14T23:07:08.664Z,98582.52
2018-12-14T23:09:40.187Z,98584.67
2018-12-14T23:12:11.776Z,98587.11
2018-12-14T23:14:43.278Z,98578.88
2018-12-14T23:17:14.829Z,98581.57
2018-12-14T23:19:46.280Z,98581.82
2018-12-14T23:22:17.827Z,98581.89
2018-12-14T23:24:49.298Z,98581.09
2018-12-14T23:27:20.694Z,98587.67
2018-12-14T23:29:52.280Z,98586.41
2018-12-14T23:32:23.898Z,98589.27
2018-12-14T23:34:55.406Z,98595.54
2018-12-14T23:37:26.946Z,98599.02
2018-12-14T23:39:58.407Z,98594.95
2018-12-14T23:42:29.958Z,98593.78
2018-12-14T23:45:01.381Z,98595.83
2018-12-14T23:47:32.951Z,98591.20
2018-12-14T23:50:04.661Z,98595.58
2018-12-14T23:52:36.267Z,98592.77
2018-12-14T23:55:07.922Z,98596.42
2018-12-14T23:57:39.471Z,98592.20
